Time;durP1;ratioP1;P1;durP2;ratioP2;P2;SDS_P1;SDS_P2;PMS_P1;PMS_P2;Temp;Humidity;BMP_temperature;BMP_pressure;BME280_temperature;BME280_humidity;BME280_pressure;Samples;Min_cycle;Max_cycle;Signal;HPM_P1;HPM_P2
2022/01/30 00:01:54;;;;;;;0.95;0.65;;;;;;;5.43;82.65;96413.59;5048751;28;20049;-49
2022/01/30 00:04:21;;;;;;;0.75;0.70;;;;;;;5.57;81.76;96409.94;5032762;28;20072;-47
2022/01/30 00:06:48;;;;;;;0.98;0.70;;;;;;;5.51;82.28;96396.88;5044367;28;20041;-49
2022/01/30 00:09:18;;;;;;;1.40;0.80;;;;;;;5.51;82.32;96407.59;5051036;28;20049;-51
2022/01/30 00:11:50;;;;;;;1.00;0.77;;;;;;;5.56;82.23;96389.56;5044860;28;20071;-49
2022/01/30 00:14:19;;;;;;;1.25;0.80;;;;;;;5.44;82.96;96388.38;5051010;28;20376;-49
2022/01/30 00:16:48;;;;;;;1.35;0.70;;;;;;;5.45;83.42;96384.59;5050734;28;20049;-49
2022/01/30 00:19:23;;;;;;;1.27;0.60;;;;;;;5.50;82.90;96393.41;5048975;28;20119;-48
2022/01/30 00:22:00;;;;;;;1.73;0.80;;;;;;;5.53;82.76;96398.19;5033014;28;20533;-46
2022/01/30 00:24:46;;;;;;;1.05;0.70;;;;;;;5.59;82.38;96390.88;5049932;28;20045;-48
2022/01/30 00:27:18;;;;;;;0.98;0.68;;;;;;;5.35;84.33;96391.69;5050760;28;20053;-47
2022/01/30 00:29:45;;;;;;;1.02;0.70;;;;;;;5.47;83.74;96385.13;5034920;28;20045;-52
2022/01/30 00:32:13;;;;;;;1.15;0.75;;;;;;;5.37;84.02;96397.56;5053364;28;20558;-48
2022/01/30 00:35:00;;;;;;;1.15;0.80;;;;;;;5.40;84.19;96404.25;5039836;28;20513;-50
2022/01/30 00:37:27;;;;;;;1.38;0.90;;;;;;;5.31;84.53;96409.47;5035809;28;20108;-47
2022/01/30 00:39:54;;;;;;;1.20;0.75;;;;;;;5.45;83.53;96406.88;5036294;28;20462;-46
2022/01/30 00:42:22;;;;;;;1.20;0.75;;;;;;;5.44;83.98;96399.13;5053658;28;20091;-50
2022/01/30 00:44:49;;;;;;;1.38;1.00;;;;;;;5.49;83.29;96397.19;5054680;28;20140;-47
2022/01/30 00:47:16;;;;;;;1.38;0.70;;;;;;;5.38;84.14;96395.69;5054554;28;20088;-47
2022/01/30 00:49:43;;;;;;;0.70;0.60;;;;;;;5.25;85.23;96380.28;5033186;28;20064;-51
2022/01/30 00:52:10;;;;;;;2.38;0.80;;;;;;;5.37;84.12;96378.78;5034403;28;20440;-47
2022/01/30 00:54:38;;;;;;;1.20;0.85;;;;;;;5.42;83.99;96393.22;5012352;28;20049;-49
2022/01/30 00:57:05;;;;;;;1.00;0.85;;;;;;;5.46;83.43;96376.28;5034566;28;20049;-48
2022/01/30 00:59:32;;;;;;;1.10;0.77;;;;;;;5.42;83.64;96377.13;5016944;28;20730;-48
2022/01/30 01:01:59;;;;;;;0.88;0.70;;;;;;;5.37;84.10;96392.22;5030432;28;20083;-47
2022/01/30 01:04:26;;;;;;;1.15;0.75;;;;;;;5.37;84.19;96378.00;5036242;28;20047;-49
2022/01/30 01:06:53;;;;;;;1.23;0.90;;;;;;;5.47;83.27;96352.91;5036583;28;20055;-50
2022/01/30 01:09:24;;;;;;;0.77;0.75;;;;;;;5.47;83.10;96371.72;5054159;28;20107;-50
2022/01/30 01:12:11;;;;;;;0.52;0.52;;;;;;;5.37;83.52;96368.06;5028350;28;20101;-49
2022/01/30 01:25:21;;;;;;;0.80;0.70;;;;;;;5.48;83.04;96367.94;5041915;28;20068;-49
2022/01/30 01:27:49;;;;;;;1.70;0.70;;;;;;;5.56;82.30;96362.72;5053890;28;20080;-50
2022/01/30 01:30:15;;;;;;;1.25;0.80;;;;;;;5.47;83.00;96355.59;5053828;28;20140;-52
2022/01/30 01:32:42;;;;;;;1.08;0.80;;;;;;;5.52;82.53;96358.19;5051143;28;20040;-47
2022/01/30 01:35:09;;;;;;;0.73;0.60;;;;;;;5.28;83.82;96380.50;5053239;28;20067;-47
2022/01/30 01:37:36;;;;;;;0.65;0.65;;;;;;;5.44;82.86;96393.75;5035760;28;20450;-48
2022/01/30 01:40:04;;;;;;;0.75;0.60;;;;;;;5.39;83.00;96392.72;5032622;28;20057;-48
2022/01/30 01:42:34;;;;;;;0.82;0.68;;;;;;;5.37;83.28;96394.91;5053008;28;20063;-49
2022/01/30 01:45:02;;;;;;;1.95;0.70;;;;;;;5.39;83.25;96381.19;5052689;28;20037;-47
2022/01/30 01:47:32;;;;;;;1.77;0.60;;;;;;;5.43;82.87;96374.16;5053334;28;20051;-47
2022/01/30 01:50:00;;;;;;;0.77;0.57;;;;;;;5.39;83.11;96398.09;5040148;28;20053;-53
2022/01/30 01:52:28;;;;;;;1.08;0.63;;;;;;;5.35;83.19;96391.69;5018354;28;20136;-48
2022/01/30 01:54:58;;;;;;;0.63;0.55;;;;;;;5.37;83.02;96407.53;5034992;28;20159;-48
2022/01/30 01:57:27;;;;;;;1.20;0.70;;;;;;;5.45;82.61;96371.19;5035400;28;20037;-49
2022/01/30 02:00:33;;;;;;;1.15;0.70;;;;;;;5.43;82.32;96354.56;5011158;28;20260;-48
2022/01/30 02:03:01;;;;;;;1.75;0.70;;;;;;;5.50;81.92;96352.34;4991366;28;20042;-52
2022/01/30 02:05:32;;;;;;;0.60;0.60;;;;;;;5.35;82.86;96338.03;5008308;28;20434;-47
2022/01/30 02:10:50;;;;;;;0.70;0.63;;;;;;;5.38;82.50;96368.84;5033013;28;20045;-50
2022/01/30 02:27:37;;;;;;;0.85;0.63;;;;;;;5.25;83.17;96346.22;5034548;28;20128;-50
2022/01/30 02:30:17;;;;;;;0.95;0.68;;;;;;;5.34;82.48;96325.72;5034753;28;20041;-47
2022/01/30 02:32:47;;;;;;;0.77;0.60;;;;;;;5.17;83.28;96336.13;5033674;28;20067;-49
2022/01/30 02:35:14;;;;;;;0.88;0.70;;;;;;;5.27;82.90;96319.91;5034352;28;20131;-47
2022/01/30 02:37:41;;;;;;;1.08;0.70;;;;;;;5.44;81.92;96326.66;5052187;28;20041;-49
2022/01/30 02:40:11;;;;;;;1.10;0.70;;;;;;;5.16;82.92;96324.59;5052432;28;20140;-49
2022/01/30 02:42:45;;;;;;;2.92;0.50;;;;;;;5.21;82.92;96310.31;5033907;28;20067;-50
2022/01/30 02:45:14;;;;;;;1.00;0.60;;;;;;;5.32;82.03;96317.13;5034321;28;20048;-49
2022/01/30 02:47:56;;;;;;;1.50;0.70;;;;;;;5.29;82.32;96328.44;5034315;28;20509;-45
2022/01/30 02:50:49;;;;;;;0.70;0.60;;;;;;;5.39;81.53;96325.66;5048858;28;20061;-47
2022/01/30 02:53:16;;;;;;;0.60;0.60;;;;;;;5.24;82.39;96312.44;5028668;28;20040;-48
2022/01/30 02:55:44;;;;;;;0.70;0.57;;;;;;;5.29;82.01;96309.66;5051976;28;20085;-48
2022/01/30 02:58:11;;;;;;;0.82;0.70;;;;;;;5.30;82.05;96313.16;5034027;28;20036;-48
2022/01/30 03:00:38;;;;;;;6.43;0.90;;;;;;;5.30;81.74;96303.22;5034158;28;20040;-50
2022/01/30 03:03:05;;;;;;;0.60;0.60;;;;;;;5.30;81.85;96319.31;5016965;28;20053;-51
2022/01/30 03:05:32;;;;;;;1.05;0.60;;;;;;;5.21;82.63;96315.69;5051923;28;20052;-51
2022/01/30 03:07:59;;;;;;;0.73;0.60;;;;;;;5.12;83.25;96317.41;5034051;28;20451;-49
2022/01/30 03:10:26;;;;;;;0.90;0.60;;;;;;;5.24;82.22;96314.31;5024527;28;20635;-50
2022/01/30 03:12:53;;;;;;;0.95;0.70;;;;;;;5.18;82.68;96302.84;5023345;28;20410;-48
2022/01/30 03:15:20;;;;;;;0.70;0.70;;;;;;;4.99;83.43;96307.38;5034155;28;20045;-52
2022/01/30 03:17:47;;;;;;;0.85;0.68;;;;;;;5.18;82.51;96310.91;5030470;28;20052;-53
2022/01/30 03:20:14;;;;;;;1.55;0.60;;;;;;;5.22;81.82;96321.84;5051987;28;20443;-48
2022/01/30 03:22:40;;;;;;;1.08;0.70;;;;;;;5.19;82.26;96328.56;5030179;28;20152;-47
2022/01/30 03:25:07;;;;;;;0.60;0.60;;;;;;;5.12;82.33;96328.94;5030715;28;20044;-49
2022/01/30 03:27:52;;;;;;;0.82;0.60;;;;;;;5.21;81.80;96334.47;5049510;28;20119;-46
2022/01/30 03:30:29;;;;;;;0.75;0.68;;;;;;;5.22;81.67;96341.41;5017933;28;20462;-48
2022/01/30 03:33:19;;;;;;;1.15;0.70;;;;;;;5.13;81.83;96338.59;5030124;28;20380;-47
2022/01/30 03:35:46;;;;;;;0.93;0.73;;;;;;;5.32;81.24;96327.88;5048805;28;20056;-49
2022/01/30 03:38:14;;;;;;;0.88;0.57;;;;;;;5.29;81.46;96333.00;5013923;28;20173;-49
2022/01/30 03:40:43;;;;;;;0.70;0.60;;;;;;;5.22;82.00;96344.09;5033677;28;20048;-47
2022/01/30 03:43:10;;;;;;;0.88;0.70;;;;;;;5.23;82.06;96343.03;5032809;28;20064;-45
2022/01/30 03:45:38;;;;;;;0.70;0.60;;;;;;;5.34;81.41;96336.44;5051391;28;20057;-54
2022/01/30 03:48:06;;;;;;;1.10;0.70;;;;;;;5.26;81.88;96355.06;5033051;28;20073;-48
2022/01/30 03:50:59;;;;;;;0.85;0.57;;;;;;;5.18;82.32;96361.06;5033530;28;20442;-46
2022/01/30 03:53:26;;;;;;;0.80;0.60;;;;;;;5.23;81.80;96339.53;5031111;28;20131;-47
2022/01/30 03:55:53;;;;;;;1.00;0.60;;;;;;;5.16;82.37;96348.72;5050937;28;20398;-46
2022/01/30 03:58:27;;;;;;;0.68;0.60;;;;;;;5.19;81.71;96360.78;5033127;28;20040;-50
2022/01/30 04:00:54;;;;;;;0.82;0.70;;;;;;;5.18;82.12;96359.19;5033163;28;20060;-50
2022/01/30 04:03:22;;;;;;;0.98;0.60;;;;;;;5.24;81.55;96349.19;5029408;28;20038;-52
2022/01/30 04:05:49;;;;;;;1.08;0.70;;;;;;;5.20;81.71;96357.03;5031380;28;20112;-48
2022/01/30 04:08:16;;;;;;;0.70;0.60;;;;;;;5.22;81.37;96352.16;5047089;28;20163;-52
2022/01/30 04:10:56;;;;;;;1.02;0.70;;;;;;;5.16;81.45;96351.41;5015621;28;20103;-48
2022/01/30 04:13:34;;;;;;;0.88;0.50;;;;;;;4.95;82.92;96365.34;5032987;28;20052;-51
2022/01/30 04:16:32;;;;;;;1.50;0.68;;;;;;;5.10;82.80;96349.91;5032988;28;20131;-49
2022/01/30 04:19:28;;;;;;;1.90;0.73;;;;;;;5.00;84.14;96349.19;4994724;28;20059;-48
2022/01/30 04:22:24;;;;;;;0.60;0.60;;;;;;;4.98;83.87;96354.06;5025111;28;20056;-48
2022/01/30 04:25:27;;;;;;;1.90;1.35;;;;;;;4.89;84.49;96340.47;4978815;28;20066;-48
2022/01/30 04:28:07;;;;;;;1.60;0.90;;;;;;;5.11;83.26;96343.44;5013886;28;20060;-48
2022/01/30 04:30:52;;;;;;;0.75;0.50;;;;;;;5.11;83.22;96356.06;5041301;28;20115;-49
2022/01/30 04:33:35;;;;;;;0.70;0.65;;;;;;;4.93;83.75;96358.38;5018495;28;20040;-48
2022/01/30 04:36:32;;;;;;;0.82;0.70;;;;;;;5.03;83.48;96367.41;5032449;28;20045;-46
2022/01/30 04:55:17;;;;;;;0.95;0.52;;;;;;;4.83;85.06;96365.75;5013154;28;20088;-49
2022/01/30 05:01:18;;;;;;;1.45;1.00;;;;;;;4.95;84.99;96406.38;5044706;28;20103;-48
2022/01/30 05:04:01;;;;;;;1.40;0.80;;;;;;;4.79;86.40;96403.03;5016434;28;20037;-49
2022/01/30 05:07:27;;;;;;;1.27;0.90;;;;;;;4.86;86.03;96400.81;5027641;28;20048;-49
2022/01/30 05:10:15;;;;;;;2.10;1.10;;;;;;;4.95;85.60;96409.06;5030814;28;20419;-51
2022/01/30 05:13:16;;;;;;;2.17;1.27;;;;;;;4.90;86.26;96401.06;5021944;28;20050;-51
2022/01/30 05:16:06;;;;;;;2.45;1.45;;;;;;;4.91;86.10;96405.34;5009020;28;20060;-48
2022/01/30 05:18:40;;;;;;;4.07;1.30;;;;;;;4.84;87.07;96407.53;5036511;28;20444;-47
2022/01/30 05:21:26;;;;;;;2.80;1.52;;;;;;;4.73;87.40;96401.50;5034117;28;20099;-47
2022/01/30 05:23:56;;;;;;;2.25;1.33;;;;;;;4.86;86.56;96416.13;5035911;28;20048;-49
2022/01/30 05:26:45;;;;;;;2.13;1.38;;;;;;;4.68;87.71;96409.59;5043291;28;20053;-50
2022/01/30 05:29:41;;;;;;;2.42;1.38;;;;;;;4.82;86.50;96415.09;5019637;28;20080;-49
2022/01/30 05:32:16;;;;;;;2.20;1.40;;;;;;;4.75;86.73;96410.06;5032467;28;20436;-48
2022/01/30 05:34:46;;;;;;;2.45;1.40;;;;;;;4.78;86.52;96404.13;5041407;28;20037;-48
2022/01/30 05:37:27;;;;;;;1.80;1.13;;;;;;;4.84;85.84;96413.72;5053489;28;20044;-48
2022/01/30 05:40:13;;;;;;;3.25;1.30;;;;;;;4.85;85.78;96412.63;5048820;28;20047;-52
2022/01/30 05:42:58;;;;;;;2.72;1.30;;;;;;;4.72;86.72;96407.94;5033896;28;20045;-47
2022/01/30 05:45:54;;;;;;;2.00;1.30;;;;;;;4.63;88.34;96410.44;5033491;28;20118;-47
2022/01/30 05:48:48;;;;;;;2.35;1.42;;;;;;;4.77;87.73;96423.97;5014385;28;20533;-50
2022/01/30 05:51:37;;;;;;;3.22;2.03;;;;;;;4.66;89.66;96411.75;5041768;28;20049;-49
2022/01/30 05:54:13;;;;;;;2.65;1.80;;;;;;;4.25;93.80;96425.47;5027289;28;20055;-48
2022/01/30 05:56:40;;;;;;;4.13;2.15;;;;;;;4.44;91.64;96426.41;5035205;28;20124;-51
2022/01/30 05:59:16;;;;;;;2.83;1.67;;;;;;;4.50;91.33;96424.47;5035283;28;20044;-49
2022/01/30 06:02:02;;;;;;;3.60;2.03;;;;;;;4.52;91.27;96425.00;5047990;28;20044;-47
2022/01/30 06:04:30;;;;;;;3.55;1.85;;;;;;;4.57;90.96;96419.59;5034897;28;20056;-48
2022/01/30 06:06:59;;;;;;;4.05;1.98;;;;;;;4.27;92.70;96414.50;5035040;28;20072;-48
2022/01/30 06:09:27;;;;;;;3.25;2.08;;;;;;;4.41;91.42;96415.44;5035194;28;20510;-49
2022/01/30 06:11:55;;;;;;;3.83;2.67;;;;;;;4.51;90.15;96425.28;5028265;28;20045;-47
2022/01/30 06:14:24;;;;;;;3.88;2.50;;;;;;;4.37;91.02;96412.53;5034898;28;20044;-49
2022/01/30 06:17:11;;;;;;;3.70;2.22;;;;;;;4.39;90.54;96431.81;5046704;28;20044;-49
2022/01/30 06:20:07;;;;;;;3.47;2.30;;;;;;;4.39;90.39;96426.47;5050820;28;20061;-48
2022/01/30 06:22:52;;;;;;;3.40;2.13;;;;;;;4.30;91.28;96430.00;5047636;28;20128;-49
2022/01/30 06:25:42;;;;;;;4.03;2.00;;;;;;;4.48;89.94;96439.22;5032983;28;20114;-49
2022/01/30 06:28:27;;;;;;;3.20;1.60;;;;;;;4.27;90.93;96442.06;5052558;28;20071;-52
2022/01/30 06:31:20;;;;;;;2.75;1.83;;;;;;;4.36;90.90;96444.97;5029288;28;20107;-51
2022/01/30 06:34:16;;;;;;;3.13;2.00;;;;;;;4.49;89.76;96470.31;5036219;28;20045;-45
2022/01/30 06:37:01;;;;;;;3.05;1.90;;;;;;;4.24;93.03;96457.91;5037383;28;20048;-52
2022/01/30 06:39:47;;;;;;;2.95;2.17;;;;;;;4.27;92.94;96458.16;5040265;28;20048;-49
2022/01/30 06:42:34;;;;;;;3.60;2.50;;;;;;;4.28;92.97;96446.34;5050437;28;20431;-48
2022/01/30 06:45:20;;;;;;;3.17;2.28;;;;;;;4.14;95.39;96454.22;5052067;28;20047;-49
2022/01/30 06:48:19;;;;;;;4.65;3.03;;;;;;;4.33;93.92;96461.59;5052192;28;20060;-48
2022/01/30 06:51:08;;;;;;;3.80;2.70;;;;;;;4.26;94.39;96459.25;5032761;28;20107;-50
2022/01/30 06:53:58;;;;;;;3.72;2.58;;;;;;;4.23;94.41;96478.53;5036392;28;20128;-51
2022/01/30 06:56:46;;;;;;;4.80;2.95;;;;;;;4.20;94.72;96493.28;5021136;28;20060;-48
2022/01/30 06:59:31;;;;;;;3.92;2.50;;;;;;;4.19;94.93;96480.97;5052221;28;20041;-48
2022/01/30 07:02:16;;;;;;;4.63;2.70;;;;;;;4.10;95.06;96490.66;5039212;28;20044;-50
2022/01/30 07:05:03;;;;;;;3.63;2.40;;;;;;;4.09;95.33;96481.00;5047663;28;20051;-49
2022/01/30 07:07:37;;;;;;;4.28;2.42;;;;;;;4.19;93.99;96461.41;5040191;23;20103;-48
2022/01/30 07:10:07;;;;;;;3.67;2.33;;;;;;;4.17;94.08;96471.63;5032681;28;20043;-49
2022/01/30 07:12:34;;;;;;;3.05;1.75;;;;;;;3.96;95.89;96479.78;5031960;28;20073;-44
2022/01/30 07:15:02;;;;;;;2.47;1.73;;;;;;;4.28;92.65;96481.16;5032821;28;20051;-45
2022/01/30 07:17:29;;;;;;;2.85;1.70;;;;;;;4.19;93.47;96477.47;5032014;28;20121;-46
2022/01/30 07:19:56;;;;;;;2.50;1.50;;;;;;;4.32;92.55;96476.88;5032643;28;20052;-43
2022/01/30 07:22:23;;;;;;;3.05;1.58;;;;;;;4.36;92.22;96480.59;5024930;28;20711;-47
2022/01/30 07:24:50;;;;;;;2.35;1.48;;;;;;;4.30;92.48;96495.09;5012976;28;20436;-45
2022/01/30 07:27:17;;;;;;;3.25;1.63;;;;;;;4.31;92.34;96491.34;5022728;28;20049;-42
2022/01/30 07:29:44;;;;;;;2.53;1.35;;;;;;;4.31;92.84;96496.69;5016057;28;20502;-43
2022/01/30 07:32:11;;;;;;;1.83;1.25;;;;;;;4.15;92.74;96498.66;5013110;28;20041;-44
2022/01/30 07:34:38;;;;;;;3.15;1.20;;;;;;;4.21;92.92;96512.81;5024569;28;20041;-44
2022/01/30 07:37:06;;;;;;;2.25;1.40;;;;;;;4.31;92.32;96509.28;5031571;28;20038;-47
2022/01/30 07:39:33;;;;;;;3.53;1.17;;;;;;;4.47;91.47;96508.09;5013867;28;20053;-49
2022/01/30 07:42:03;;;;;;;1.50;1.00;;;;;;;4.47;90.78;96512.66;5027311;28;20509;-44
2022/01/30 07:44:32;;;;;;;1.52;1.00;;;;;;;4.29;91.84;96520.28;4989110;28;20071;-44
2022/01/30 07:46:59;;;;;;;1.63;1.00;;;;;;;4.21;91.79;96523.53;5031400;28;20473;-45
2022/01/30 07:49:26;;;;;;;1.95;1.17;;;;;;;4.19;91.77;96520.31;5032033;28;20053;-47
2022/01/30 07:51:53;;;;;;;2.42;1.20;;;;;;;4.40;90.42;96512.97;5014485;28;20132;-43
2022/01/30 07:54:21;;;;;;;3.25;1.10;;;;;;;4.31;90.74;96502.03;5023253;28;20048;-44
2022/01/30 07:56:48;;;;;;;2.67;1.30;;;;;;;4.39;90.12;96506.81;5032988;28;20543;-43
2022/01/30 07:59:15;;;;;;;2.70;1.30;;;;;;;4.50;88.74;96490.69;5032506;28;20040;-45
2022/01/30 08:01:42;;;;;;;2.90;1.27;;;;;;;4.51;88.05;96495.75;5030712;28;20049;-44
2022/01/30 08:04:09;;;;;;;3.50;1.20;;;;;;;4.44;88.15;96495.25;5020048;28;20137;-42
2022/01/30 08:06:36;;;;;;;3.25;1.30;;;;;;;4.58;86.93;96495.44;5013818;28;20111;-42
2022/01/30 08:09:03;;;;;;;4.75;1.40;;;;;;;4.55;85.77;96490.63;5014181;28;20041;-46
2022/01/30 08:11:30;;;;;;;4.43;1.30;;;;;;;4.52;85.96;96501.91;5025052;28;20096;-46
2022/01/30 08:13:57;;;;;;;4.93;1.73;;;;;;;4.54;84.60;96513.94;5031503;28;20038;-44
2022/01/30 08:16:27;;;;;;;4.15;1.30;;;;;;;4.55;83.53;96514.75;5021435;28;20115;-47
2022/01/30 08:18:54;;;;;;;5.25;1.40;;;;;;;4.56;83.38;96527.09;5013919;28;20045;-46
2022/01/30 08:21:22;;;;;;;5.03;1.42;;;;;;;4.56;82.25;96525.19;5024556;28;20043;-45
2022/01/30 08:23:50;;;;;;;5.20;1.67;;;;;;;4.55;83.10;96528.13;5018428;28;20492;-44
2022/01/30 08:26:17;;;;;;;5.18;1.50;;;;;;;4.56;83.05;96541.28;5030296;28;20469;-44
2022/01/30 08:28:44;;;;;;;3.55;1.33;;;;;;;4.55;82.70;96538.84;5031316;28;20045;-45
2022/01/30 08:31:11;;;;;;;6.07;1.15;;;;;;;4.49;82.00;96542.69;5031078;28;20132;-43
2022/01/30 08:33:38;;;;;;;2.42;0.95;;;;;;;4.56;82.61;96551.19;5031585;28;20045;-45
2022/01/30 08:36:06;;;;;;;2.08;0.85;;;;;;;4.62;83.11;96534.00;5031553;28;20045;-43
2022/01/30 08:38:33;;;;;;;5.15;1.05;;;;;;;4.51;83.68;96548.53;5030338;28;20041;-45
2022/01/30 08:40:59;;;;;;;7.18;2.88;;;;;;;4.55;83.75;96544.22;5025699;28;20052;-42
2022/01/30 08:43:29;;;;;;;2.42;1.10;;;;;;;4.58;83.75;96560.56;5004625;28;20038;-43
2022/01/30 08:45:56;;;;;;;4.05;1.13;;;;;;;4.49;85.04;96564.91;5032620;28;20069;-46
2022/01/30 08:48:23;;;;;;;4.38;1.30;;;;;;;4.54;84.77;96564.06;5013444;28;20050;-42
2022/01/30 08:50:50;;;;;;;4.78;1.10;;;;;;;4.65;84.46;96555.69;5027706;28;20116;-45
2022/01/30 08:53:17;;;;;;;2.75;1.10;;;;;;;4.58;85.15;96570.47;5015562;28;20065;-44
2022/01/30 08:55:44;;;;;;;2.00;0.80;;;;;;;4.79;84.04;96566.56;5034378;28;20052;-45
2022/01/30 08:58:11;;;;;;;3.35;1.15;;;;;;;4.81;83.77;96560.91;5035015;28;20453;-47
2022/01/30 09:00:43;;;;;;;1.98;1.00;;;;;;;4.70;84.78;96573.59;5034359;28;20562;-43
2022/01/30 09:03:10;;;;;;;3.58;1.30;;;;;;;4.93;83.38;96564.84;5019986;28;20054;-45
2022/01/30 09:05:38;;;;;;;2.85;1.20;;;;;;;4.90;83.44;96562.72;5007123;28;20043;-44
2022/01/30 09:08:07;;;;;;;2.83;1.27;;;;;;;4.87;83.65;96563.28;5016670;28;20486;-43
2022/01/30 09:10:37;;;;;;;3.40;1.42;;;;;;;4.96;83.11;96570.75;5024539;28;20474;-44
2022/01/30 09:13:05;;;;;;;2.53;1.17;;;;;;;5.09;82.29;96591.56;5025465;28;20042;-47
2022/01/30 09:15:41;;;;;;;3.17;1.85;;;;;;;5.08;82.02;96579.25;5016960;28;20116;-45
2022/01/30 09:18:11;;;;;;;6.75;1.60;;;;;;;5.34;81.41;96566.41;5033996;28;20056;-45
2022/01/30 09:20:40;;;;;;;3.03;1.45;;;;;;;5.37;80.51;96585.41;5015122;28;20077;-42
2022/01/30 09:23:10;;;;;;;4.00;1.02;;;;;;;5.46;80.22;96584.78;5024835;28;20430;-44
2022/01/30 09:25:43;;;;;;;4.88;1.25;;;;;;;5.52;79.93;96594.38;4999329;28;20533;-46
2022/01/30 09:28:10;;;;;;;8.07;1.60;;;;;;;5.71;78.66;96597.16;5016308;28;20125;-44
2022/01/30 09:30:37;;;;;;;5.45;1.70;;;;;;;5.80;77.97;96585.50;5017185;28;20104;-45
2022/01/30 09:33:04;;;;;;;5.90;1.35;;;;;;;5.55;73.63;96612.63;5018700;28;20046;-44
2022/01/30 09:35:31;;;;;;;3.60;1.58;;;;;;;5.31;72.18;96605.31;5016225;28;20068;-45
2022/01/30 09:37:58;;;;;;;4.70;2.13;;;;;;;5.27;73.13;96585.50;5034747;28;20092;-44
2022/01/30 09:40:25;;;;;;;6.78;2.30;;;;;;;5.19;72.01;96583.41;5035210;28;20584;-44
2022/01/30 09:42:53;;;;;;;7.13;1.98;;;;;;;5.07;72.50;96583.81;5016701;28;20041;-43
2022/01/30 09:45:22;;;;;;;5.88;1.80;;;;;;;4.86;73.15;96575.09;5034119;28;20069;-45
2022/01/30 09:47:51;;;;;;;6.50;1.52;;;;;;;4.79;73.50;96576.50;5016876;28;20057;-46
2022/01/30 09:50:21;;;;;;;7.15;2.00;;;;;;;4.99;72.91;96591.63;5015208;28;20069;-46
2022/01/30 09:52:48;;;;;;;5.47;1.83;;;;;;;4.93;73.40;96583.63;5018942;28;20046;-44
2022/01/30 09:55:15;;;;;;;3.85;1.77;;;;;;;5.06;72.13;96578.69;5037146;28;20103;-45
2022/01/30 09:57:43;;;;;;;9.95;2.00;;;;;;;5.22;71.21;96574.00;4998189;28;20104;-46
2022/01/30 10:00:11;;;;;;;8.88;2.20;;;;;;;5.31;70.26;96583.84;5034315;28;20041;-44
2022/01/30 10:02:43;;;;;;;6.65;1.55;;;;;;;5.35;69.36;96584.88;5026633;28;20136;-44
2022/01/30 10:05:20;;;;;;;3.27;1.30;;;;;;;5.31;69.83;96575.81;5015748;28;20080;-43
2022/01/30 10:07:55;;;;;;;5.38;1.85;;;;;;;5.33;69.29;96572.81;5032997;28;20049;-42
2022/01/30 10:10:26;;;;;;;9.02;2.25;;;;;;;5.42;68.79;96570.34;5012773;28;20042;-44
2022/01/30 10:13:11;;;;;;;5.88;1.65;;;;;;;5.20;69.84;96560.06;5028070;28;20141;-44
2022/01/30 10:15:52;;;;;;;11.00;3.20;;;;;;;5.36;68.76;96554.31;5034531;28;20037;-45
2022/01/30 10:18:21;;;;;;;10.35;1.83;;;;;;;5.35;69.52;96538.47;5031717;28;20076;-43
2022/01/30 10:20:48;;;;;;;9.77;2.10;;;;;;;5.42;68.88;96541.63;5014017;28;20088;-43
2022/01/30 10:23:16;;;;;;;6.25;1.70;;;;;;;5.24;68.53;96545.03;5033526;28;20084;-45
2022/01/30 10:25:49;;;;;;;6.82;2.35;;;;;;;5.09;68.63;96560.16;5016346;28;20132;-45
2022/01/30 10:28:31;;;;;;;7.60;2.53;;;;;;;5.21;68.65;96559.81;5034977;28;20590;-44
2022/01/30 10:31:04;;;;;;;6.88;2.22;;;;;;;5.31;68.08;96561.59;5015911;28;20045;-46
2022/01/30 10:33:47;;;;;;;8.40;2.08;;;;;;;5.22;68.07;96572.13;5034385;28;20041;-45
2022/01/30 10:36:21;;;;;;;5.72;1.73;;;;;;;5.15;68.62;96579.72;5034133;28;20077;-45
2022/01/30 10:39:00;;;;;;;7.22;2.30;;;;;;;5.33;68.79;96578.19;5034595;28;20570;-46
2022/01/30 10:41:41;;;;;;;10.35;2.80;;;;;;;5.50;68.61;96580.47;5025662;28;20048;-43
2022/01/30 10:44:09;;;;;;;8.95;2.10;;;;;;;5.52;68.98;96567.56;5030035;28;20483;-45
2022/01/30 10:46:45;;;;;;;5.60;1.90;;;;;;;5.39;69.03;96571.69;5033222;28;20049;-44
2022/01/30 10:49:15;;;;;;;5.75;1.80;;;;;;;5.36;68.67;96586.50;5017932;28;20045;-46
2022/01/30 10:51:58;;;;;;;6.50;1.70;;;;;;;5.69;68.67;96580.53;5027385;28;20099;-45
2022/01/30 10:54:29;;;;;;;7.45;2.70;;;;;;;5.73;68.84;96608.44;5019185;28;20055;-48
2022/01/30 10:57:07;;;;;;;8.32;1.90;;;;;;;5.73;68.94;96578.91;5028849;28;20052;-49
2022/01/30 10:59:42;;;;;;;5.82;2.00;;;;;;;5.91;68.84;96577.34;5033530;28;20041;-47
2022/01/30 11:02:12;;;;;;;6.28;1.98;;;;;;;5.83;68.23;96582.25;5013086;28;20040;-48
2022/01/30 11:04:40;;;;;;;8.40;2.38;;;;;;;5.45;69.25;96588.56;5023133;28;20532;-45
2022/01/30 11:07:08;;;;;;;6.63;2.00;;;;;;;5.49;69.62;96581.53;5033348;28;20049;-48
2022/01/30 11:09:40;;;;;;;4.70;1.95;;;;;;;5.45;69.79;96583.19;5033164;28;20132;-46
2022/01/30 11:12:15;;;;;;;4.85;2.10;;;;;;;5.30;70.50;96594.88;5014506;28;20050;-49
2022/01/30 11:17:16;;;;;;;7.13;2.63;;;;;;;5.04;71.82;96584.38;5032543;28;19967;-47
2022/01/30 11:19:52;;;;;;;4.47;2.03;;;;;;;5.42;70.93;96591.81;5015485;28;20464;-44
2022/01/30 11:22:21;;;;;;;6.00;1.73;;;;;;;5.38;71.14;96584.31;5030563;28;20659;-45
2022/01/30 11:25:00;;;;;;;4.13;1.55;;;;;;;5.53;71.15;96582.59;5024478;28;20044;-47
2022/01/30 11:27:28;;;;;;;8.82;1.83;;;;;;;5.66;70.20;96573.88;5032800;28;20045;-50
2022/01/30 11:29:55;;;;;;;8.65;2.38;;;;;;;6.08;69.84;96588.47;5032145;28;20065;-45
2022/01/30 11:32:23;;;;;;;6.55;1.70;;;;;;;6.04;67.83;96574.78;5034185;28;20042;-47
2022/01/30 11:34:53;;;;;;;6.38;1.60;;;;;;;5.89;68.81;96576.84;5034530;28;20038;-46
2022/01/30 11:37:31;;;;;;;3.67;1.35;;;;;;;5.66;70.20;96578.44;5029461;28;20072;-46
2022/01/30 11:40:00;;;;;;;7.32;2.30;;;;;;;5.89;70.15;96566.91;5019744;28;20041;-44
2022/01/30 11:42:44;;;;;;;7.38;1.95;;;;;;;6.23;68.60;96574.03;5015146;28;20056;-50
2022/01/30 11:45:27;;;;;;;7.90;2.55;;;;;;;6.15;67.32;96564.75;5030956;28;20696;-45
2022/01/30 11:48:20;;;;;;;7.28;1.88;;;;;;;6.40;65.58;96560.94;5028295;28;20115;-47
2022/01/30 11:51:02;;;;;;;7.82;2.20;;;;;;;7.01;65.03;96548.44;4997814;28;20053;-50
2022/01/30 11:53:29;;;;;;;3.55;1.50;;;;;;;6.26;66.34;96562.72;5003460;28;20121;-47
2022/01/30 11:56:01;;;;;;;6.07;2.50;;;;;;;6.13;66.61;96553.47;5021825;28;20054;-51
2022/01/30 11:58:31;;;;;;;7.82;1.70;;;;;;;6.23;64.98;96563.28;5019806;28;20133;-49
2022/01/30 12:01:15;;;;;;;7.65;2.00;;;;;;;6.36;64.50;96549.13;5012105;28;20049;-48
2022/01/30 12:04:01;;;;;;;9.68;2.28;;;;;;;6.20;64.26;96567.34;5014732;28;20038;-49
2022/01/30 12:06:32;;;;;;;6.57;2.50;;;;;;;5.71;66.76;96559.56;5024940;28;20418;-50
2022/01/30 12:09:19;;;;;;;4.45;1.80;;;;;;;6.41;64.46;96559.03;5027907;28;20049;-46
2022/01/30 12:11:49;;;;;;;8.75;2.05;;;;;;;5.96;64.12;96566.59;5025212;28;20072;-44
2022/01/30 12:14:19;;;;;;;6.97;1.90;;;;;;;6.29;63.09;96568.31;5014224;28;20044;-44
2022/01/30 12:16:52;;;;;;;9.50;1.83;;;;;;;6.63;62.31;96551.19;5026690;28;20042;-47
2022/01/30 12:19:31;;;;;;;9.38;2.60;;;;;;;6.02;62.80;96571.59;5026515;28;20065;-45
2022/01/30 12:21:59;;;;;;;6.70;1.92;;;;;;;6.18;62.91;96555.31;5021074;28;20046;-47
2022/01/30 12:24:28;;;;;;;6.30;1.70;;;;;;;6.48;62.22;96559.47;5023715;28;20041;-44
2022/01/30 12:27:02;;;;;;;5.82;1.52;;;;;;;7.14;58.80;96553.06;5028061;28;20128;-50
2022/01/30 12:29:44;;;;;;;7.15;1.90;;;;;;;7.70;58.54;96549.41;5020394;28;20129;-46
2022/01/30 12:32:20;;;;;;;7.80;2.10;;;;;;;8.01;58.16;96548.78;5034619;28;20411;-45
2022/01/30 12:34:56;;;;;;;7.22;2.42;;;;;;;8.01;57.08;96543.41;5035742;28;20046;-45
2022/01/30 12:37:35;;;;;;;3.58;1.65;;;;;;;6.85;59.16;96541.72;5036030;28;20042;-45
2022/01/30 12:40:11;;;;;;;8.18;2.63;;;;;;;7.19;57.54;96530.66;5017462;28;20095;-47
2022/01/30 12:42:39;;;;;;;6.10;1.88;;;;;;;6.55;59.29;96525.75;5021178;28;20523;-45
2022/01/30 12:45:11;;;;;;;3.17;1.30;;;;;;;6.67;58.59;96524.50;5017693;28;20072;-46
2022/01/30 12:47:56;;;;;;;10.60;2.00;;;;;;;7.58;56.74;96527.53;5017444;28;20072;-48
2022/01/30 12:50:33;;;;;;;4.53;1.58;;;;;;;8.14;54.67;96512.94;5017623;28;20052;-46
2022/01/30 12:53:02;;;;;;;7.70;2.13;;;;;;;7.91;54.23;96519.38;5020169;28;20091;-50
2022/01/30 12:55:29;;;;;;;6.60;1.85;;;;;;;7.73;56.07;96512.97;5017644;28;20045;-49
2022/01/30 12:57:59;;;;;;;5.13;1.77;;;;;;;7.17;58.17;96514.81;5035049;28;20083;-49
2022/01/30 13:00:26;;;;;;;9.57;1.92;;;;;;;6.88;58.75;96515.00;5034850;28;20051;-46
2022/01/30 13:02:55;;;;;;;8.55;2.63;;;;;;;6.23;59.97;96510.34;5015535;28;20124;-47